Time;durP1;ratioP1;P1;durP2;ratioP2;P2;SDS_P1;SDS_P2;PMS_P1;PMS_P2;Temp;Humidity;BMP_temperature;BMP_pressure;BME280_temperature;BME280_humidity;BME280_pressure;Samples;Min_cycle;Max_cycle;Signal;HPM_P1;HPM_P2
2023/10/21 00:00:30;;;;;;;32.70;26.07;;;;;22.00;97373.00;;;;2076179;28;20784;-67
2023/10/21 00:01:31;;;;;;;35.30;28.03;;;;;22.00;97374.00;;;;2071113;28;20643;-67
2023/10/21 00:02:31;;;;;;;34.50;27.27;;;;;22.00;97372.00;;;;2068805;28;20218;-67
2023/10/21 00:03:32;;;;;;;33.60;25.60;;;;;22.00;97357.00;;;;2071545;28;20215;-67
2023/10/21 00:04:32;;;;;;;33.33;26.67;;;;;22.00;97379.00;;;;2059187;28;20222;-67
2023/10/21 00:05:32;;;;;;;32.27;25.17;;;;;22.00;97373.00;;;;2071688;28;20236;-67
2023/10/21 00:06:33;;;;;;;33.97;25.40;;;;;22.00;97376.00;;;;2071532;28;20222;-67
2023/10/21 00:07:33;;;;;;;31.90;24.53;;;;;22.00;97386.00;;;;2070473;28;20663;-67
2023/10/21 00:08:33;;;;;;;32.70;25.87;;;;;22.00;97378.00;;;;2058213;28;20238;-67
2023/10/21 00:09:34;;;;;;;33.23;24.73;;;;;22.00;97374.00;;;;2051328;28;20214;-67
2023/10/21 00:10:34;;;;;;;30.33;24.20;;;;;22.00;97377.00;;;;2073211;28;20269;-67
2023/10/21 00:11:34;;;;;;;30.17;23.70;;;;;22.00;97378.00;;;;2071231;28;20596;-67
2023/10/21 00:12:35;;;;;;;32.20;24.27;;;;;22.00;97348.00;;;;2063231;28;20246;-67
2023/10/21 00:13:36;;;;;;;32.60;24.10;;;;;22.00;97371.00;;;;2054887;28;20220;-67
2023/10/21 00:14:36;;;;;;;31.40;23.90;;;;;22.00;97379.00;;;;2057717;28;20309;-67
2023/10/21 00:15:36;;;;;;;31.17;23.67;;;;;22.00;97377.00;;;;2069436;28;20214;-67
2023/10/21 00:16:37;;;;;;;29.50;22.33;;;;;22.00;97379.00;;;;2057156;28;20286;-67
2023/10/21 00:17:37;;;;;;;29.50;23.97;;;;;22.00;97385.00;;;;2045101;28;20227;-67
2023/10/21 00:18:38;;;;;;;28.10;22.90;;;;;22.00;97390.00;;;;2054736;28;20932;-67
2023/10/21 00:19:39;;;;;;;27.75;22.67;;;;;22.00;97383.00;;;;2060860;28;20210;-67
2023/10/21 00:20:39;;;;;;;27.80;22.03;;;;;22.00;97383.00;;;;2062871;28;20234;-67
2023/10/21 00:21:39;;;;;;;30.17;22.07;;;;;22.00;97393.00;;;;2060917;28;20948;-67
2023/10/21 00:22:40;;;;;;;27.70;21.90;;;;;22.00;97386.00;;;;2071652;28;20214;-67
2023/10/21 00:23:40;;;;;;;26.97;21.73;;;;;22.00;97396.00;;;;2070201;28;20221;-67
2023/10/21 00:24:40;;;;;;;23.80;19.57;;;;;22.00;97392.00;;;;2054301;28;20228;-67
2023/10/21 00:25:41;;;;;;;24.50;20.37;;;;;22.00;97401.00;;;;2069271;28;20218;-67
2023/10/21 00:26:47;;;;;;;29.50;21.80;;;;;22.00;97400.00;;;;2068487;28;20276;-67
2023/10/21 00:27:48;;;;;;;27.60;21.92;;;;;22.00;97399.00;;;;2069800;28;20313;-67
2023/10/21 00:28:48;;;;;;;25.37;19.87;;;;;22.00;97396.00;;;;2067878;28;20219;-67
2023/10/21 00:29:48;;;;;;;30.13;21.17;;;;;22.00;97403.00;;;;2060840;28;20292;-67
2023/10/21 00:30:49;;;;;;;25.07;20.37;;;;;22.00;97398.00;;;;2071557;28;20218;-67
2023/10/21 00:31:50;;;;;;;22.93;18.90;;;;;22.00;97405.00;;;;2071686;28;20221;-67
2023/10/21 00:32:50;;;;;;;24.30;20.30;;;;;21.90;97407.00;;;;2069436;28;20222;-67
2023/10/21 00:33:50;;;;;;;24.80;19.43;;;;;21.90;97412.00;;;;2069017;28;20314;-67
2023/10/21 00:34:51;;;;;;;25.23;20.83;;;;;21.90;97406.00;;;;2047147;28;20223;-67
2023/10/21 00:35:51;;;;;;;22.60;17.90;;;;;21.90;97397.00;;;;2061110;28;20241;-67
2023/10/21 00:36:52;;;;;;;23.23;17.77;;;;;21.90;97399.00;;;;2064517;28;20529;-67
2023/10/21 00:37:52;;;;;;;22.10;17.20;;;;;21.90;97383.00;;;;2055968;28;20263;-67
2023/10/21 00:38:52;;;;;;;23.50;18.57;;;;;21.90;97409.00;;;;2060227;28;20225;-67
2023/10/21 00:39:53;;;;;;;22.43;18.03;;;;;22.00;97402.00;;;;2055783;28;20234;-67
2023/10/21 00:40:55;;;;;;;23.13;18.63;;;;;21.90;97406.00;;;;2070481;28;20256;-67
2023/10/21 00:41:55;;;;;;;20.80;17.33;;;;;21.90;97413.00;;;;2062749;28;20215;-67
2023/10/21 00:42:55;;;;;;;24.53;18.50;;;;;21.90;97416.00;;;;2056163;28;20248;-67
2023/10/21 00:43:56;;;;;;;21.57;17.70;;;;;21.90;97411.00;;;;2062625;28;20224;-67
2023/10/21 00:44:56;;;;;;;21.27;17.20;;;;;21.90;97411.00;;;;2068207;28;20215;-67
2023/10/21 00:45:56;;;;;;;23.30;18.23;;;;;21.90;97410.00;;;;2066218;28;20237;-67
2023/10/21 00:46:59;;;;;;;20.10;16.80;;;;;21.90;97412.00;;;;2063225;28;20694;-67
2023/10/21 00:47:59;;;;;;;24.13;18.30;;;;;21.90;97407.00;;;;2067599;28;20245;-67
2023/10/21 00:48:59;;;;;;;21.63;17.37;;;;;21.90;97416.00;;;;2050655;28;20222;-67
2023/10/21 00:50:01;;;;;;;22.10;16.87;;;;;21.90;97410.00;;;;2061239;28;20751;-67
2023/10/21 00:51:01;;;;;;;19.60;16.15;;;;;21.80;97403.00;;;;2054677;28;20216;-67
2023/10/21 00:52:02;;;;;;;20.97;15.40;;;;;21.90;97365.00;;;;2071364;28;20221;-67
2023/10/21 00:53:03;;;;;;;20.90;16.00;;;;;21.90;97410.00;;;;2071358;28;20761;-67
2023/10/21 00:54:03;;;;;;;20.90;15.77;;;;;21.90;97405.00;;;;2045167;28;20839;-67
2023/10/21 00:55:04;;;;;;;18.20;14.90;;;;;21.90;97399.00;;;;2047337;28;20232;-67
2023/10/21 00:56:06;;;;;;;22.77;15.83;;;;;21.90;97413.00;;;;2062460;28;20301;-67
2023/10/21 00:57:06;;;;;;;18.33;14.35;;;;;21.90;97418.00;;;;2062039;28;20207;-67
2023/10/21 00:58:06;;;;;;;18.77;15.10;;;;;21.90;97416.00;;;;2063925;28;20207;-67
2023/10/21 00:59:07;;;;;;;18.07;14.50;;;;;21.90;97412.00;;;;2045570;28;20215;-67
2023/10/21 01:00:16;;;;;;;18.73;14.40;;;;;21.90;97410.00;;;;2075162;28;20232;-67
2023/10/21 01:01:16;;;;;;;18.98;14.98;;;;;21.90;97386.00;;;;2062939;28;20285;-67
2023/10/21 01:02:17;;;;;;;19.57;15.07;;;;;21.90;97414.00;;;;2064300;28;20678;-67
2023/10/21 01:03:17;;;;;;;18.73;14.37;;;;;21.90;97392.00;;;;2060381;28;20657;-67
2023/10/21 01:04:17;;;;;;;18.80;14.83;;;;;21.90;97412.00;;;;2047993;28;20227;-67
2023/10/21 01:05:19;;;;;;;18.93;14.80;;;;;21.90;97419.00;;;;2071072;28;20222;-67
2023/10/21 01:06:19;;;;;;;15.68;13.23;;;;;21.90;97421.00;;;;2069230;28;20281;-67
2023/10/21 01:07:19;;;;;;;17.70;14.20;;;;;21.90;97422.00;;;;2070866;28;20201;-67
2023/10/21 01:08:20;;;;;;;16.53;13.90;;;;;21.90;97426.00;;;;2068519;28;20230;-67
2023/10/21 01:09:22;;;;;;;15.50;13.43;;;;;21.90;97427.00;;;;2063999;28;20233;-67
2023/10/21 01:10:22;;;;;;;16.60;13.15;;;;;21.90;97430.00;;;;2075968;28;20209;-67
2023/10/21 01:11:22;;;;;;;17.40;13.47;;;;;21.90;97428.00;;;;2068194;28;20214;-67
2023/10/21 01:12:22;;;;;;;15.20;12.93;;;;;21.90;97425.00;;;;2067921;28;20222;-67
2023/10/21 01:13:23;;;;;;;15.87;13.20;;;;;21.90;97431.00;;;;2067197;28;20219;-67
2023/10/21 01:14:24;;;;;;;16.70;13.07;;;;;21.90;97433.00;;;;2064006;28;20233;-67
2023/10/21 01:15:24;;;;;;;18.83;13.57;;;;;21.90;97428.00;;;;2077453;28;20206;-67
2023/10/21 01:16:24;;;;;;;16.67;12.60;;;;;21.90;97427.00;;;;2066140;28;20570;-67
2023/10/21 01:17:24;;;;;;;17.93;13.70;;;;;21.90;97431.00;;;;2059025;28;20876;-67
2023/10/21 01:18:25;;;;;;;15.17;12.40;;;;;21.90;97427.00;;;;2059471;28;20697;-67
2023/10/21 01:19:25;;;;;;;14.70;12.30;;;;;21.90;97426.00;;;;2061910;28;20930;-67
2023/10/21 01:20:26;;;;;;;14.47;11.80;;;;;21.90;97426.00;;;;2077552;28;20661;-67
2023/10/21 01:21:26;;;;;;;16.63;12.53;;;;;21.90;97438.00;;;;2071801;28;20218;-67
2023/10/21 01:22:27;;;;;;;15.63;12.40;;;;;21.80;97431.00;;;;2071031;28;20252;-67
2023/10/21 01:23:28;;;;;;;17.03;13.00;;;;;21.80;97437.00;;;;2073041;28;20325;-67
2023/10/21 01:24:28;;;;;;;14.67;12.27;;;;;21.90;97436.00;;;;2053214;28;20235;-67
2023/10/21 01:25:29;;;;;;;15.77;12.20;;;;;21.90;97438.00;;;;2061302;28;20231;-67
2023/10/21 01:26:29;;;;;;;17.07;12.07;;;;;21.90;97433.00;;;;2059858;28;20238;-67
2023/10/21 01:27:29;;;;;;;14.37;11.60;;;;;21.90;97438.00;;;;2057988;28;20626;-67
2023/10/21 01:28:30;;;;;;;14.70;11.47;;;;;21.90;97436.00;;;;2069687;28;20828;-67
2023/10/21 01:29:30;;;;;;;14.00;11.00;;;;;21.90;97433.00;;;;2058263;28;20726;-67
2023/10/21 01:30:30;;;;;;;16.63;11.60;;;;;21.90;97417.00;;;;2071873;28;20230;-67
2023/10/21 01:31:32;;;;;;;17.23;11.47;;;;;21.90;97441.00;;;;2072266;28;20236;-67
2023/10/21 01:32:33;;;;;;;12.38;10.05;;;;;21.90;97443.00;;;;2072426;28;20661;-67
2023/10/21 01:33:33;;;;;;;13.33;11.60;;;;;21.90;97439.00;;;;2072044;28;20230;-67
2023/10/21 01:34:33;;;;;;;15.53;10.87;;;;;21.80;97448.00;;;;2062363;28;20233;-67
2023/10/21 01:35:34;;;;;;;13.87;10.67;;;;;21.80;97447.00;;;;2061099;28;20246;-67
2023/10/21 01:36:34;;;;;;;12.83;10.50;;;;;21.80;97451.00;;;;2061748;28;20221;-67
2023/10/21 01:37:35;;;;;;;13.73;10.77;;;;;21.80;97448.00;;;;2066812;28;20218;-67
2023/10/21 01:38:35;;;;;;;12.77;10.63;;;;;21.80;97451.00;;;;2069739;28;20698;-67
2023/10/21 01:39:35;;;;;;;12.20;10.00;;;;;21.80;97451.00;;;;2060977;28;20219;-67
2023/10/21 01:40:38;;;;;;;13.82;11.68;;;;;21.80;97450.00;;;;2073392;28;20220;-67
2023/10/21 01:41:38;;;;;;;12.00;10.47;;;;;21.80;97455.00;;;;2063758;28;20218;-67
2023/10/21 01:42:41;;;;;;;12.47;10.33;;;;;21.80;97457.00;;;;2064124;28;20701;-67
2023/10/21 01:43:42;;;;;;;12.02;9.45;;;;;21.80;97452.00;;;;2071327;28;20222;-67
2023/10/21 01:44:42;;;;;;;12.93;10.03;;;;;21.80;97450.00;;;;2062369;28;20938;-67
2023/10/21 01:45:42;;;;;;;11.17;10.00;;;;;21.80;97454.00;;;;2068383;28;20218;-67
2023/10/21 01:46:43;;;;;;;10.87;9.10;;;;;21.80;97462.00;;;;2071673;28;20210;-67
2023/10/21 01:47:43;;;;;;;12.13;9.93;;;;;21.80;97458.00;;;;2069345;28;20322;-67
2023/10/21 01:48:44;;;;;;;11.50;9.30;;;;;21.80;97457.00;;;;2072832;28;20218;-67
2023/10/21 01:49:44;;;;;;;12.43;9.50;;;;;21.80;97452.00;;;;2068619;28;20229;-67
2023/10/21 01:50:44;;;;;;;12.30;10.30;;;;;21.80;97458.00;;;;2079314;28;20213;-67
2023/10/21 01:51:44;;;;;;;10.10;9.00;;;;;21.80;97456.00;;;;2073351;28;20210;-67
2023/10/21 01:52:45;;;;;;;12.43;10.07;;;;;21.80;97466.00;;;;2071723;28;20214;-67
2023/10/21 01:53:45;;;;;;;11.97;8.90;;;;;21.80;97467.00;;;;2072383;28;20218;-67
2023/10/21 01:54:45;;;;;;;14.20;9.43;;;;;21.80;97462.00;;;;2061489;28;20252;-67
2023/10/21 01:55:46;;;;;;;11.50;9.30;;;;;21.80;97464.00;;;;2063583;28;20665;-67
2023/10/21 01:56:46;;;;;;;9.87;8.07;;;;;21.80;97469.00;;;;2063767;28;20221;-67
2023/10/21 01:57:46;;;;;;;14.70;9.13;;;;;21.80;97471.00;;;;2068333;28;20228;-67
2023/10/21 01:58:47;;;;;;;10.40;8.67;;;;;21.80;97470.00;;;;2071757;28;20257;-67
2023/10/21 01:59:47;;;;;;;10.07;8.00;;;;;21.80;97416.00;;;;2062811;28;20234;-67
2023/10/21 02:00:47;;;;;;;10.23;8.00;;;;;21.70;97484.00;;;;2071950;28;20264;-67
2023/10/21 02:01:48;;;;;;;9.73;7.87;;;;;21.80;97478.00;;;;2071939;28;20294;-67
2023/10/21 02:02:50;;;;;;;9.13;8.23;;;;;21.80;97484.00;;;;2073079;28;20230;-67
2023/10/21 02:03:52;;;;;;;12.23;9.02;;;;;21.80;97477.00;;;;2070822;28;20217;-67
2023/10/21 02:04:52;;;;;;;9.80;8.73;;;;;21.80;97485.00;;;;2065766;28;20217;-67
2023/10/21 02:05:53;;;;;;;10.20;7.90;;;;;21.80;97484.00;;;;2070544;28;20813;-67
2023/10/21 02:06:53;;;;;;;10.87;8.03;;;;;21.80;97487.00;;;;2069153;28;20207;-67
2023/10/21 02:07:53;;;;;;;10.90;8.10;;;;;21.80;97487.00;;;;2068180;28;20646;-67
2023/10/21 02:08:54;;;;;;;10.60;8.33;;;;;21.80;97495.00;;;;2069451;28;20678;-67
2023/10/21 02:09:54;;;;;;;10.60;8.20;;;;;21.80;97487.00;;;;2061866;28;20658;-67
2023/10/21 02:10:54;;;;;;;12.20;8.43;;;;;21.80;97495.00;;;;2077974;28;20229;-67
2023/10/21 02:11:55;;;;;;;11.53;8.77;;;;;21.80;97433.00;;;;2079319;28;20221;-67
2023/10/21 02:12:55;;;;;;;9.00;8.03;;;;;21.80;97495.00;;;;2062836;28;20277;-67
2023/10/21 02:13:55;;;;;;;8.17;7.07;;;;;21.80;97496.00;;;;2055202;28;20218;-67
2023/10/21 02:14:56;;;;;;;9.80;7.67;;;;;21.80;97496.00;;;;2052370;28;20218;-67
2023/10/21 02:15:57;;;;;;;9.40;7.57;;;;;21.80;97495.00;;;;2053617;28;20219;-67
2023/10/21 02:16:57;;;;;;;9.60;8.03;;;;;21.80;97504.00;;;;2063107;28;20219;-67
2023/10/21 02:17:57;;;;;;;10.40;7.33;;;;;21.80;97497.00;;;;2072451;28;20206;-67
2023/10/21 02:18:58;;;;;;;8.43;7.13;;;;;21.80;97502.00;;;;2059786;28;20364;-67
2023/10/21 02:19:58;;;;;;;8.40;7.33;;;;;21.80;97510.00;;;;2065829;28;20222;-67
2023/10/21 02:20:58;;;;;;;7.57;6.33;;;;;21.80;97511.00;;;;2069608;28;20210;-67
2023/10/21 02:21:59;;;;;;;8.33;6.90;;;;;21.80;97501.00;;;;2072302;28;20218;-67
2023/10/21 02:23:00;;;;;;;8.77;6.93;;;;;21.80;97510.00;;;;2071375;28;20219;-67
2023/10/21 02:24:00;;;;;;;9.30;6.80;;;;;21.80;97514.00;;;;2061856;28;21020;-67
2023/10/21 02:25:00;;;;;;;9.43;8.40;;;;;21.80;97446.00;;;;2072222;28;20719;-67
2023/10/21 02:26:04;;;;;;;7.30;6.17;;;;;21.80;97512.00;;;;2062144;28;20219;-67
2023/10/21 02:27:05;;;;;;;8.35;6.88;;;;;21.80;97519.00;;;;2054234;28;20216;-67
2023/10/21 02:28:05;;;;;;;7.00;6.10;;;;;21.80;97517.00;;;;2056587;28;20219;-67
2023/10/21 02:29:05;;;;;;;9.43;7.97;;;;;21.80;97521.00;;;;2059107;28;20219;-67
2023/10/21 02:30:10;;;;;;;8.40;6.83;;;;;21.80;97513.00;;;;2063880;28;20289;-67
2023/10/21 02:31:12;;;;;;;8.02;6.00;;;;;21.80;97515.00;;;;2062583;28;20214;-67
2023/10/21 02:32:12;;;;;;;8.57;7.25;;;;;21.80;97519.00;;;;2063263;28;20222;-67
2023/10/21 02:33:12;;;;;;;7.93;6.47;;;;;21.70;97527.00;;;;2057340;28;20215;-67
2023/10/21 02:34:13;;;;;;;8.23;6.60;;;;;21.80;97530.00;;;;2047397;28;20216;-67
2023/10/21 02:35:13;;;;;;;8.30;5.67;;;;;21.80;97526.00;;;;2067072;28;20222;-67
2023/10/21 02:36:14;;;;;;;10.03;6.87;;;;;21.80;97529.00;;;;2069821;28;20721;-67
2023/10/21 02:37:14;;;;;;;8.00;6.50;;;;;21.80;97527.00;;;;2071506;28;20276;-67
2023/10/21 02:38:15;;;;;;;7.27;5.60;;;;;21.80;97525.00;;;;2070401;28;20229;-67
2023/10/21 02:39:17;;;;;;;7.90;6.07;;;;;21.80;97531.00;;;;2054389;28;20338;-67
2023/10/21 02:40:17;;;;;;;7.78;6.20;;;;;21.80;97533.00;;;;2078329;28;20226;-67
2023/10/21 02:41:18;;;;;;;7.73;6.93;;;;;21.80;97534.00;;;;2079346;28;20293;-67
2023/10/21 02:42:19;;;;;;;7.70;5.97;;;;;21.70;97534.00;;;;2072225;28;20256;-67
2023/10/21 02:43:20;;;;;;;6.13;5.22;;;;;21.70;97541.00;;;;2071267;28;20221;-67
2023/10/21 02:44:20;;;;;;;8.47;6.70;;;;;21.80;97536.00;;;;2069726;28;20604;-67
2023/10/21 02:45:21;;;;;;;7.60;6.40;;;;;21.70;97539.00;;;;2079046;28;20710;-67
2023/10/21 02:46:21;;;;;;;7.70;5.90;;;;;21.80;97544.00;;;;2071932;28;20213;-67
2023/10/21 02:47:21;;;;;;;7.20;6.40;;;;;21.70;97535.00;;;;2070743;28;20225;-67
2023/10/21 02:48:21;;;;;;;6.60;4.93;;;;;21.70;97543.00;;;;2067660;28;20238;-67
2023/10/21 02:49:22;;;;;;;6.07;4.90;;;;;21.70;97540.00;;;;2046700;28;20289;-67
2023/10/21 02:50:22;;;;;;;6.20;5.60;;;;;21.80;97552.00;;;;2066419;28;20214;-67
2023/10/21 02:51:22;;;;;;;6.70;5.00;;;;;21.70;97552.00;;;;2071482;28;20206;-68
2023/10/21 02:52:23;;;;;;;7.77;5.60;;;;;21.70;97557.00;;;;2071129;28;20210;-67
2023/10/21 02:53:23;;;;;;;6.77;6.07;;;;;21.70;97563.00;;;;2072150;28;20203;-67
2023/10/21 02:54:23;;;;;;;6.73;5.20;;;;;21.80;97558.00;;;;2062972;28;20616;-67
2023/10/21 02:55:27;;;;;;;6.20;4.47;;;;;21.80;97557.00;;;;2070440;28;20902;-67
2023/10/21 02:56:27;;;;;;;7.07;6.00;;;;;21.70;97563.00;;;;2063024;28;20217;-67
2023/10/21 02:57:29;;;;;;;6.80;5.43;;;;;21.80;97563.00;;;;2062004;28;20214;-67
2023/10/21 02:58:29;;;;;;;5.82;4.90;;;;;21.70;97563.00;;;;2071626;28;20214;-67
2023/10/21 02:59:30;;;;;;;5.33;4.10;;;;;21.70;97555.00;;;;2052898;28;20223;-67
2023/10/21 03:00:31;;;;;;;6.73;5.00;;;;;21.70;97568.00;;;;2061123;28;20577;-67
2023/10/21 03:01:31;;;;;;;6.00;5.07;;;;;21.70;97566.00;;;;2068202;28;20460;-67
2023/10/21 03:02:31;;;;;;;5.60;4.37;;;;;21.70;97573.00;;;;2074996;28;20217;-67
2023/10/21 03:03:31;;;;;;;6.03;5.00;;;;;21.70;97572.00;;;;2069732;28;20221;-67
2023/10/21 03:04:32;;;;;;;6.83;4.80;;;;;21.70;97562.00;;;;2062141;28;20228;-67
2023/10/21 03:05:32;;;;;;;7.00;4.90;;;;;21.70;97575.00;;;;2054982;28;20299;-67
2023/10/21 03:06:32;;;;;;;6.50;5.00;;;;;21.70;97568.00;;;;2061498;28;20215;-67
2023/10/21 03:07:33;;;;;;;4.70;3.90;;;;;21.70;97573.00;;;;2069186;28;20305;-67
2023/10/21 03:08:33;;;;;;;5.10;4.37;;;;;21.70;97575.00;;;;2071416;28;20234;-67
2023/10/21 03:09:34;;;;;;;6.27;4.33;;;;;21.70;97566.00;;;;2055650;28;20281;-67
2023/10/21 03:10:36;;;;;;;6.17;4.70;;;;;21.70;97574.00;;;;2057878;28;20215;-67
2023/10/21 03:11:37;;;;;;;5.10;4.38;;;;;21.70;97576.00;;;;2064891;28;20211;-67
2023/10/21 03:12:37;;;;;;;7.27;4.90;;;;;21.70;97578.00;;;;2054053;28;20227;-67
2023/10/21 03:13:38;;;;;;;6.00;4.97;;;;;21.70;97585.00;;;;2063219;28;20693;-67
2023/10/21 03:14:39;;;;;;;6.37;4.47;;;;;21.70;97586.00;;;;2053716;28;20560;-67
2023/10/21 03:15:39;;;;;;;4.43;3.80;;;;;21.70;97588.00;;;;2062110;28;20590;-67
2023/10/21 03:16:40;;;;;;;6.17;4.60;;;;;21.70;97585.00;;;;2062616;28;20231;-67
2023/10/21 03:17:40;;;;;;;5.97;4.20;;;;;21.70;97588.00;;;;2074811;28;20671;-67
2023/10/21 03:18:40;;;;;;;4.97;4.47;;;;;21.70;97593.00;;;;2072982;28;20237;-67
2023/10/21 03:19:41;;;;;;;4.80;3.63;;;;;21.20;97581.00;;;;2053659;28;20222;-67
2023/10/21 03:20:41;;;;;;;4.93;3.87;;;;;21.70;97595.00;;;;2060951;28;20220;-67
2023/10/21 03:21:42;;;;;;;4.47;3.67;;;;;21.70;97598.00;;;;2071773;28;20224;-67
2023/10/21 03:22:43;;;;;;;6.20;4.73;;;;;21.70;97606.00;;;;2068300;28;20226;-67
2023/10/21 03:23:44;;;;;;;4.90;4.07;;;;;21.70;97606.00;;;;2066632;28;20215;-67
2023/10/21 03:24:44;;;;;;;4.60;4.10;;;;;21.70;97613.00;;;;2060732;28;20651;-67
2023/10/21 03:26:14;;;;;;;4.27;3.80;;;;;21.70;97613.00;;;;2074010;28;20798;-67
2023/10/21 03:27:14;;;;;;;4.20;3.60;;;;;21.70;97603.00;;;;2054638;28;20891;-67
2023/10/21 03:28:14;;;;;;;5.80;4.03;;;;;21.70;97619.00;;;;2071193;28;20230;-67
2023/10/21 03:29:15;;;;;;;4.77;3.67;;;;;21.70;97624.00;;;;2060549;28;20675;-67
2023/10/21 03:30:16;;;;;;;3.80;3.37;;;;;21.70;97619.00;;;;2061955;28;20262;-67
2023/10/21 03:31:16;;;;;;;6.67;4.80;;;;;21.70;97596.00;;;;2055368;28;20734;-67
2023/10/21 03:32:17;;;;;;;5.97;4.10;;;;;21.70;97622.00;;;;2061362;28;20585;-67
2023/10/21 03:33:17;;;;;;;7.23;3.83;;;;;21.70;97631.00;;;;2069816;28;20553;-67
2023/10/21 03:34:18;;;;;;;4.10;3.50;;;;;21.70;97629.00;;;;2061103;28;20960;-67
2023/10/21 03:35:18;;;;;;;4.30;3.23;;;;;21.70;97625.00;;;;2070310;28;20222;-67
2023/10/21 03:36:18;;;;;;;3.93;3.33;;;;;21.70;97630.00;;;;2071627;28;20222;-67
2023/10/21 03:37:19;;;;;;;5.20;3.97;;;;;21.70;97632.00;;;;2068010;28;20269;-67
2023/10/21 03:38:19;;;;;;;3.80;3.23;;;;;21.70;97634.00;;;;2063731;28;20211;-67
2023/10/21 03:39:21;;;;;;;4.23;3.20;;;;;21.70;97638.00;;;;2061127;28;20253;-67
2023/10/21 03:40:21;;;;;;;4.88;3.67;;;;;21.70;97633.00;;;;2065012;28;20296;-67
2023/10/21 03:41:21;;;;;;;3.67;3.20;;;;;21.70;97635.00;;;;2071604;28;20214;-67
2023/10/21 03:42:22;;;;;;;4.63;3.57;;;;;21.70;97643.00;;;;2070426;28;20349;-67
2023/10/21 03:43:22;;;;;;;4.00;3.27;;;;;21.70;97641.00;;;;2071248;28;20214;-67
2023/10/21 03:44:22;;;;;;;3.97;3.57;;;;;21.70;97645.00;;;;2068572;28;20222;-67
2023/10/21 03:45:23;;;;;;;4.63;3.50;;;;;21.70;97649.00;;;;2078874;28;20210;-67
2023/10/21 03:46:23;;;;;;;4.10;3.30;;;;;21.70;97651.00;;;;2071854;28;20260;-67
2023/10/21 03:47:27;;;;;;;3.90;3.23;;;;;21.70;97658.00;;;;2071113;28;20217;-67
2023/10/21 03:48:27;;;;;;;4.25;2.97;;;;;21.70;97646.00;;;;2071308;28;20205;-67
2023/10/21 03:49:27;;;;;;;4.30;3.43;;;;;21.70;97627.00;;;;2061918;28;20378;-67
2023/10/21 03:50:28;;;;;;;5.20;3.70;;;;;21.70;97659.00;;;;2071635;28;20214;-67
2023/10/21 03:51:29;;;;;;;3.50;2.80;;;;;21.60;97655.00;;;;2070894;28;20229;-67
2023/10/21 03:52:29;;;;;;;4.70;3.00;;;;;21.70;97662.00;;;;2054569;28;20366;-67
2023/10/21 03:53:31;;;;;;;4.70;3.23;;;;;21.70;97653.00;;;;2054989;28;20211;-67
2023/10/21 03:54:31;;;;;;;4.25;2.92;;;;;21.70;97662.00;;;;2060247;28;20218;-67
2023/10/21 03:55:31;;;;;;;4.23;3.50;;;;;21.70;97663.00;;;;2071962;28;20241;-67
2023/10/21 03:56:32;;;;;;;4.73;3.30;;;;;21.70;97660.00;;;;2072138;28;20245;-67
2023/10/21 03:57:32;;;;;;;4.00;3.20;;;;;21.70;97666.00;;;;2071765;28;20214;-67
2023/10/21 03:58:32;;;;;;;4.10;2.83;;;;;21.70;97662.00;;;;2071495;28;20214;-67
2023/10/21 03:59:33;;;;;;;3.40;3.00;;;;;21.70;97666.00;;;;2059271;28;20225;-67
2023/10/21 04:00:34;;;;;;;4.13;3.30;;;;;21.70;97671.00;;;;2071606;28;20218;-67
2023/10/21 04:01:34;;;;;;;3.88;3.05;;;;;21.70;97672.00;;;;2070143;28;20241;-67
2023/10/21 04:02:35;;;;;;;3.37;2.77;;;;;21.70;97677.00;;;;2079067;28;20213;-67
2023/10/21 04:03:35;;;;;;;4.60;3.20;;;;;21.70;97674.00;;;;2078188;28;20209;-67
2023/10/21 04:04:35;;;;;;;3.73;3.03;;;;;21.70;97680.00;;;;2061309;28;20309;-67
2023/10/21 04:05:36;;;;;;;3.50;2.40;;;;;21.70;97678.00;;;;2071386;28;20217;-67
2023/10/21 04:06:36;;;;;;;3.83;2.93;;;;;21.70;97687.00;;;;2072837;28;20226;-67
2023/10/21 04:07:36;;;;;;;2.63;2.27;;;;;21.70;97688.00;;;;2070936;28;20211;-67
2023/10/21 04:08:37;;;;;;;3.63;3.10;;;;;21.70;97682.00;;;;2069824;28;20259;-67
2023/10/21 04:09:37;;;;;;;2.90;2.20;;;;;21.70;97683.00;;;;2061640;28;20222;-67
2023/10/21 04:10:37;;;;;;;3.67;2.70;;;;;21.70;97687.00;;;;2070107;28;20210;-67
2023/10/21 04:11:38;;;;;;;3.90;2.80;;;;;21.70;97687.00;;;;2068841;28;20221;-67
2023/10/21 04:12:39;;;;;;;3.60;2.50;;;;;21.70;97695.00;;;;2065977;28;20218;-67
2023/10/21 04:13:39;;;;;;;2.95;2.65;;;;;21.70;97628.00;;;;2073299;28;20236;-67
2023/10/21 04:14:39;;;;;;;3.20;2.43;;;;;21.70;97699.00;;;;2051068;28;20278;-67
2023/10/21 04:15:40;;;;;;;3.00;2.07;;;;;21.70;97699.00;;;;2062497;28;21139;-67
2023/10/21 04:16:44;;;;;;;3.13;2.63;;;;;21.70;97704.00;;;;2068896;28;20866;-67
2023/10/21 04:17:45;;;;;;;3.15;2.40;;;;;21.70;97702.00;;;;2060695;28;20313;-67
2023/10/21 04:18:45;;;;;;;3.28;2.60;;;;;21.70;97704.00;;;;2069548;28;20222;-67
2023/10/21 04:19:46;;;;;;;2.77;2.13;;;;;21.70;97708.00;;;;2058836;28;20218;-67
2023/10/21 04:20:47;;;;;;;4.30;2.57;;;;;21.70;97715.00;;;;2066397;28;20474;-67
2023/10/21 04:21:47;;;;;;;2.77;2.30;;;;;21.60;97714.00;;;;2063251;28;20229;-67
2023/10/21 04:22:47;;;;;;;3.50;2.33;;;;;21.70;97713.00;;;;2063964;28;20276;-67
2023/10/21 04:23:48;;;;;;;2.90;2.30;;;;;21.70;97689.00;;;;2066544;28;20261;-67
2023/10/21 04:24:48;;;;;;;3.53;2.50;;;;;21.70;97712.00;;;;2050106;28;20254;-67
2023/10/21 04:25:48;;;;;;;3.50;2.23;;;;;21.60;97720.00;;;;2073139;28;20229;-67
2023/10/21 04:26:50;;;;;;;4.00;2.20;;;;;21.60;97690.00;;;;2071496;28;20218;-67
2023/10/21 04:27:50;;;;;;;3.55;2.50;;;;;21.60;97715.00;;;;2070919;28;20222;-67
2023/10/21 04:28:50;;;;;;;3.27;2.97;;;;;21.60;97723.00;;;;2068754;28;20693;-67
2023/10/21 04:29:51;;;;;;;3.23;2.50;;;;;21.60;97718.00;;;;2066534;28;20220;-67
2023/10/21 04:30:51;;;;;;;3.07;2.20;;;;;21.60;97721.00;;;;2079053;28;20233;-67
2023/10/21 04:31:52;;;;;;;4.40;2.73;;;;;21.60;97727.00;;;;2071422;28;20224;-67
2023/10/21 04:32:52;;;;;;;3.07;2.30;;;;;21.60;97724.00;;;;2068049;28;20210;-67
2023/10/21 04:33:52;;;;;;;2.67;2.20;;;;;21.60;97722.00;;;;2078313;28;20915;-67
2023/10/21 04:34:53;;;;;;;2.80;1.90;;;;;21.60;97730.00;;;;2067247;28;20542;-67
2023/10/21 04:35:53;;;;;;;5.20;3.07;;;;;21.60;97723.00;;;;2070819;28;20249;-67
2023/10/21 04:36:53;;;;;;;2.70;2.30;;;;;21.60;97733.00;;;;2077601;28;20645;-67
2023/10/21 04:37:55;;;;;;;2.60;1.97;;;;;21.60;97733.00;;;;2078443;28;20933;-67
2023/10/21 04:38:55;;;;;;;3.10;2.40;;;;;21.60;97716.00;;;;2072747;28;20592;-67
2023/10/21 04:39:55;;;;;;;3.50;2.10;;;;;21.60;97731.00;;;;2064751;28;20252;-67
2023/10/21 04:40:56;;;;;;;2.90;2.07;;;;;21.60;97738.00;;;;2072807;28;20222;-67
2023/10/21 04:41:56;;;;;;;2.50;2.07;;;;;21.70;97750.00;;;;2069090;28;20222;-67
2023/10/21 04:42:56;;;;;;;3.57;2.10;;;;;21.70;97728.00;;;;2060050;28;20718;-67
2023/10/21 04:43:57;;;;;;;2.50;2.00;;;;;21.70;97742.00;;;;2056341;28;20223;-66
2023/10/21 04:44:58;;;;;;;3.43;2.03;;;;;21.80;97738.00;;;;2076128;28;20240;-66
2023/10/21 04:45:58;;;;;;;3.23;2.30;;;;;21.80;97748.00;;;;2064198;28;20222;-66
2023/10/21 04:46:59;;;;;;;2.60;1.90;;;;;21.80;97746.00;;;;2064504;28;20499;-67
2023/10/21 04:47:59;;;;;;;3.00;1.90;;;;;21.80;97753.00;;;;2072999;28;20230;-67
2023/10/21 04:48:59;;;;;;;2.50;2.07;;;;;21.80;97754.00;;;;2064718;28;20218;-67
2023/10/21 04:49:59;;;;;;;2.80;1.77;;;;;21.80;97759.00;;;;2076454;28;20218;-67
2023/10/21 04:51:00;;;;;;;2.63;2.13;;;;;21.80;97753.00;;;;2069023;28;20245;-67
2023/10/21 04:52:00;;;;;;;3.93;1.90;;;;;21.70;97727.00;;;;2072393;28;20217;-67
2023/10/21 04:53:01;;;;;;;3.20;1.93;;;;;21.80;97760.00;;;;2072645;28;20213;-67
2023/10/21 04:54:01;;;;;;;2.87;1.90;;;;;21.70;97768.00;;;;2062432;28;20313;-67
2023/10/21 04:55:01;;;;;;;3.80;2.07;;;;;21.70;97772.00;;;;2070812;28;20225;-67
2023/10/21 04:56:03;;;;;;;5.77;1.90;;;;;21.70;97762.00;;;;2072324;28;20218;-67
2023/10/21 04:57:03;;;;;;;2.60;1.67;;;;;21.70;97766.00;;;;2065801;28;20225;-67
2023/10/21 04:58:04;;;;;;;3.27;1.50;;;;;21.70;97772.00;;;;2068199;28;20256;-67
2023/10/21 04:59:05;;;;;;;3.17;1.53;;;;;21.60;97776.00;;;;2051046;28;20223;-67
2023/10/21 05:00:08;;;;;;;2.83;1.87;;;;;21.70;97772.00;;;;2072973;28;20464;-67
2023/10/21 05:01:10;;;;;;;2.80;2.00;;;;;21.70;97765.00;;;;2071814;28;20477;-67